sensor_id;sensor_type;location;lat;lon;timestamp;P1;durP1;ratioP1;P2;durP2;ratioP2
38591;SDS011;24356;48.460;11.450;2023-07-13T00:02:22;10.32;;;4.55;;
38591;SDS011;24356;48.460;11.450;2023-07-13T00:04:48;7.30;;;4.80;;
38591;SDS011;24356;48.460;11.450;2023-07-13T00:07:14;10.57;;;4.53;;
38591;SDS011;24356;48.460;11.450;2023-07-13T00:09:40;8.98;;;5.07;;
38591;SDS011;24356;48.460;11.450;2023-07-13T00:12:20;7.22;;;4.45;;
38591;SDS011;24356;48.460;11.450;2023-07-13T00:14:55;8.05;;;5.15;;
38591;SDS011;24356;48.460;11.450;2023-07-13T00:17:22;7.25;;;4.40;;
38591;SDS011;24356;48.460;11.450;2023-07-13T00:19:48;9.45;;;4.95;;
38591;SDS011;24356;48.460;11.450;2023-07-13T00:22:13;7.35;;;4.80;;
38591;SDS011;24356;48.460;11.450;2023-07-13T00:24:40;10.77;;;4.90;;
38591;SDS011;24356;48.460;11.450;2023-07-13T00:27:09;9.68;;;5.22;;
38591;SDS011;24356;48.460;11.450;2023-07-13T00:29:36;11.05;;;4.60;;
38591;SDS011;24356;48.460;11.450;2023-07-13T00:32:05;6.68;;;4.47;;
38591;SDS011;24356;48.460;11.450;2023-07-13T00:34:32;12.48;;;5.65;;
38591;SDS011;24356;48.460;11.450;2023-07-13T00:36:58;9.48;;;5.10;;
38591;SDS011;24356;48.460;11.450;2023-07-13T00:39:24;10.90;;;4.82;;
38591;SDS011;24356;48.460;11.450;2023-07-13T00:41:50;9.05;;;5.55;;
38591;SDS011;24356;48.460;11.450;2023-07-13T00:44:18;7.35;;;5.40;;
38591;SDS011;24356;48.460;11.450;2023-07-13T00:46:45;10.45;;;4.90;;
38591;SDS011;24356;48.460;11.450;2023-07-13T00:49:13;11.27;;;4.85;;
38591;SDS011;24356;48.460;11.450;2023-07-13T00:51:51;10.82;;;5.32;;
38591;SDS011;24356;48.460;11.450;2023-07-13T00:54:22;10.05;;;4.65;;
38591;SDS011;24356;48.460;11.450;2023-07-13T00:56:54;6.72;;;5.05;;
38591;SDS011;24356;48.460;11.450;2023-07-13T00:59:22;6.38;;;4.30;;
38591;SDS011;24356;48.460;11.450;2023-07-13T01:01:49;13.07;;;5.03;;
38591;SDS011;24356;48.460;11.450;2023-07-13T01:04:15;11.07;;;4.80;;
38591;SDS011;24356;48.460;11.450;2023-07-13T01:06:41;11.50;;;5.38;;
38591;SDS011;24356;48.460;11.450;2023-07-13T01:09:09;9.57;;;5.15;;
38591;SDS011;24356;48.460;11.450;2023-07-13T01:11:35;9.63;;;4.88;;
38591;SDS011;24356;48.460;11.450;2023-07-13T01:14:01;9.48;;;4.10;;
38591;SDS011;24356;48.460;11.450;2023-07-13T01:16:29;8.20;;;3.85;;
38591;SDS011;24356;48.460;11.450;2023-07-13T01:18:59;6.47;;;4.18;;
38591;SDS011;24356;48.460;11.450;2023-07-13T01:21:27;8.77;;;4.20;;
38591;SDS011;24356;48.460;11.450;2023-07-13T01:23:54;7.07;;;3.88;;
38591;SDS011;24356;48.460;11.450;2023-07-13T01:26:19;10.13;;;4.80;;
38591;SDS011;24356;48.460;11.450;2023-07-13T01:28:45;8.30;;;5.15;;
38591;SDS011;24356;48.460;11.450;2023-07-13T01:31:11;8.07;;;4.65;;
38591;SDS011;24356;48.460;11.450;2023-07-13T01:33:37;13.20;;;4.72;;
38591;SDS011;24356;48.460;11.450;2023-07-13T01:36:05;9.85;;;4.32;;
38591;SDS011;24356;48.460;11.450;2023-07-13T01:38:32;15.30;;;4.97;;
38591;SDS011;24356;48.460;11.450;2023-07-13T01:40:58;13.43;;;4.75;;
38591;SDS011;24356;48.460;11.450;2023-07-13T01:43:24;9.40;;;4.75;;
38591;SDS011;24356;48.460;11.450;2023-07-13T01:45:51;8.98;;;3.58;;
38591;SDS011;24356;48.460;11.450;2023-07-13T01:48:16;7.30;;;4.80;;
38591;SDS011;24356;48.460;11.450;2023-07-13T01:50:45;9.32;;;4.45;;
38591;SDS011;24356;48.460;11.450;2023-07-13T01:53:10;8.10;;;4.32;;
38591;SDS011;24356;48.460;11.450;2023-07-13T01:55:36;12.55;;;5.93;;
38591;SDS011;24356;48.460;11.450;2023-07-13T01:58:03;8.00;;;5.30;;
38591;SDS011;24356;48.460;11.450;2023-07-13T02:00:31;13.30;;;5.35;;
38591;SDS011;24356;48.460;11.450;2023-07-13T02:02:56;15.63;;;5.45;;
38591;SDS011;24356;48.460;11.450;2023-07-13T02:05:22;10.07;;;4.95;;
38591;SDS011;24356;48.460;11.450;2023-07-13T02:07:48;12.30;;;5.68;;
38591;SDS011;24356;48.460;11.450;2023-07-13T02:10:14;12.00;;;4.63;;
38591;SDS011;24356;48.460;11.450;2023-07-13T02:12:40;13.73;;;4.60;;
38591;SDS011;24356;48.460;11.450;2023-07-13T02:15:07;11.45;;;5.10;;
38591;SDS011;24356;48.460;11.450;2023-07-13T02:17:34;11.68;;;5.60;;
38591;SDS011;24356;48.460;11.450;2023-07-13T02:20:00;10.10;;;4.65;;
38591;SDS011;24356;48.460;11.450;2023-07-13T02:22:27;6.50;;;3.90;;
38591;SDS011;24356;48.460;11.450;2023-07-13T02:24:53;7.18;;;4.72;;
38591;SDS011;24356;48.460;11.450;2023-07-13T02:27:20;11.00;;;4.72;;
38591;SDS011;24356;48.460;11.450;2023-07-13T02:29:45;11.95;;;4.72;;
38591;SDS011;24356;48.460;11.450;2023-07-13T02:32:11;8.40;;;5.35;;
38591;SDS011;24356;48.460;11.450;2023-07-13T02:34:36;13.30;;;5.47;;
38591;SDS011;24356;48.460;11.450;2023-07-13T02:37:02;14.70;;;5.72;;
38591;SDS011;24356;48.460;11.450;2023-07-13T02:39:28;12.73;;;5.70;;
38591;SDS011;24356;48.460;11.450;2023-07-13T02:41:53;8.93;;;3.97;;
38591;SDS011;24356;48.460;11.450;2023-07-13T02:44:19;8.02;;;4.85;;
38591;SDS011;24356;48.460;11.450;2023-07-13T02:46:45;15.52;;;6.20;;
38591;SDS011;24356;48.460;11.450;2023-07-13T02:49:10;12.32;;;5.30;;
38591;SDS011;24356;48.460;11.450;2023-07-13T02:51:36;11.38;;;4.95;;
38591;SDS011;24356;48.460;11.450;2023-07-13T02:54:02;13.27;;;7.10;;
38591;SDS011;24356;48.460;11.450;2023-07-13T02:56:29;10.65;;;6.63;;
38591;SDS011;24356;48.460;11.450;2023-07-13T02:58:57;14.07;;;6.18;;
38591;SDS011;24356;48.460;11.450;2023-07-13T03:01:23;12.77;;;6.22;;
38591;SDS011;24356;48.460;11.450;2023-07-13T03:03:49;12.68;;;6.40;;
38591;SDS011;24356;48.460;11.450;2023-07-13T03:06:16;14.30;;;6.72;;
38591;SDS011;24356;48.460;11.450;2023-07-13T03:08:42;10.48;;;6.32;;
38591;SDS011;24356;48.460;11.450;2023-07-13T03:11:10;17.60;;;7.55;;
38591;SDS011;24356;48.460;11.450;2023-07-13T03:13:38;13.50;;;6.38;;
38591;SDS011;24356;48.460;11.450;2023-07-13T03:16:04;17.67;;;6.45;;
38591;SDS011;24356;48.460;11.450;2023-07-13T03:18:32;13.82;;;5.80;;
38591;SDS011;24356;48.460;11.450;2023-07-13T03:20:58;12.82;;;6.03;;
38591;SDS011;24356;48.460;11.450;2023-07-13T03:23:24;14.57;;;6.70;;
38591;SDS011;24356;48.460;11.450;2023-07-13T03:25:50;14.02;;;6.50;;
38591;SDS011;24356;48.460;11.450;2023-07-13T03:28:25;8.68;;;5.28;;
38591;SDS011;24356;48.460;11.450;2023-07-13T03:30:58;19.23;;;6.25;;
38591;SDS011;24356;48.460;11.450;2023-07-13T03:33:26;11.43;;;5.55;;
38591;SDS011;24356;48.460;11.450;2023-07-13T03:35:52;17.13;;;7.07;;
38591;SDS011;24356;48.460;11.450;2023-07-13T03:38:17;12.45;;;6.28;;
38591;SDS011;24356;48.460;11.450;2023-07-13T03:40:43;13.77;;;5.22;;
38591;SDS011;24356;48.460;11.450;2023-07-13T03:43:08;16.05;;;6.50;;
38591;SDS011;24356;48.460;11.450;2023-07-13T03:45:34;8.95;;;5.53;;
38591;SDS011;24356;48.460;11.450;2023-07-13T03:48:02;12.65;;;5.63;;
38591;SDS011;24356;48.460;11.450;2023-07-13T03:50:28;10.52;;;5.45;;
38591;SDS011;24356;48.460;11.450;2023-07-13T03:52:55;14.43;;;5.30;;
38591;SDS011;24356;48.460;11.450;2023-07-13T03:55:24;9.93;;;5.80;;
38591;SDS011;24356;48.460;11.450;2023-07-13T03:57:54;12.02;;;6.03;;
38591;SDS011;24356;48.460;11.450;2023-07-13T04:00:24;10.95;;;6.03;;
38591;SDS011;24356;48.460;11.450;2023-07-13T04:02:50;14.05;;;5.97;;
38591;SDS011;24356;48.460;11.450;2023-07-13T04:05:16;12.85;;;5.32;;
38591;SDS011;24356;48.460;11.450;2023-07-13T04:07:41;11.07;;;5.65;;
38591;SDS011;24356;48.460;11.450;2023-07-13T04:10:07;7.63;;;4.68;;
38591;SDS011;24356;48.460;11.450;2023-07-13T04:12:33;10.55;;;5.22;;
38591;SDS011;24356;48.460;11.450;2023-07-13T04:14:59;10.68;;;4.40;;
38591;SDS011;24356;48.460;11.450;2023-07-13T04:17:24;11.05;;;4.38;;
38591;SDS011;24356;48.460;11.450;2023-07-13T04:19:50;13.32;;;5.13;;
38591;SDS011;24356;48.460;11.450;2023-07-13T04:22:16;11.77;;;4.95;;
38591;SDS011;24356;48.460;11.450;2023-07-13T04:24:41;10.68;;;3.95;;
38591;SDS011;24356;48.460;11.450;2023-07-13T04:27:07;7.55;;;4.05;;
38591;SDS011;24356;48.460;11.450;2023-07-13T04:29:32;11.13;;;3.95;;
38591;SDS011;24356;48.460;11.450;2023-07-13T04:31:58;9.85;;;4.40;;
38591;SDS011;24356;48.460;11.450;2023-07-13T04:34:24;8.57;;;4.18;;
38591;SDS011;24356;48.460;11.450;2023-07-13T04:36:49;5.88;;;3.90;;
38591;SDS011;24356;48.460;11.450;2023-07-13T04:39:15;8.60;;;4.03;;
38591;SDS011;24356;48.460;11.450;2023-07-13T04:41:41;9.40;;;3.70;;
38591;SDS011;24356;48.460;11.450;2023-07-13T04:44:07;8.98;;;3.90;;
38591;SDS011;24356;48.460;11.450;2023-07-13T04:46:32;8.13;;;4.10;;
38591;SDS011;24356;48.460;11.450;2023-07-13T04:48:58;11.80;;;4.55;;
38591;SDS011;24356;48.460;11.450;2023-07-13T04:51:23;13.57;;;4.65;;
38591;SDS011;24356;48.460;11.450;2023-07-13T04:53:50;9.77;;;4.20;;
38591;SDS011;24356;48.460;11.450;2023-07-13T04:56:15;7.45;;;3.70;;
38591;SDS011;24356;48.460;11.450;2023-07-13T04:58:41;9.40;;;3.97;;
38591;SDS011;24356;48.460;11.450;2023-07-13T05:01:06;8.27;;;4.25;;
38591;SDS011;24356;48.460;11.450;2023-07-13T05:03:34;10.98;;;4.25;;
38591;SDS011;24356;48.460;11.450;2023-07-13T05:06:04;6.78;;;4.00;;
38591;SDS011;24356;48.460;11.450;2023-07-13T05:08:31;7.47;;;4.35;;
38591;SDS011;24356;48.460;11.450;2023-07-13T05:10:59;9.27;;;4.13;;
38591;SDS011;24356;48.460;11.450;2023-07-13T05:13:26;7.20;;;3.92;;
38591;SDS011;24356;48.460;11.450;2023-07-13T05:15:55;6.45;;;3.40;;
38591;SDS011;24356;48.460;11.450;2023-07-13T05:18:26;7.15;;;3.78;;
38591;SDS011;24356;48.460;11.450;2023-07-13T05:20:57;7.47;;;3.38;;
38591;SDS011;24356;48.460;11.450;2023-07-13T05:23:24;5.68;;;3.22;;
38591;SDS011;24356;48.460;11.450;2023-07-13T05:25:51;5.43;;;3.65;;
38591;SDS011;24356;48.460;11.450;2023-07-13T05:28:17;14.75;;;3.75;;
38591;SDS011;24356;48.460;11.450;2023-07-13T05:30:46;9.43;;;3.40;;
38591;SDS011;24356;48.460;11.450;2023-07-13T05:33:12;9.65;;;3.78;;
38591;SDS011;24356;48.460;11.450;2023-07-13T05:35:38;10.98;;;3.40;;
38591;SDS011;24356;48.460;11.450;2023-07-13T05:38:04;13.55;;;3.85;;
38591;SDS011;24356;48.460;11.450;2023-07-13T05:40:29;7.07;;;3.40;;
38591;SDS011;24356;48.460;11.450;2023-07-13T05:42:55;5.85;;;3.47;;
38591;SDS011;24356;48.460;11.450;2023-07-13T05:45:20;5.50;;;3.17;;
38591;SDS011;24356;48.460;11.450;2023-07-13T05:47:46;6.93;;;3.53;;
38591;SDS011;24356;48.460;11.450;2023-07-13T05:50:11;10.23;;;3.53;;
38591;SDS011;24356;48.460;11.450;2023-07-13T05:52:37;9.52;;;3.22;;
38591;SDS011;24356;48.460;11.450;2023-07-13T05:55:03;10.10;;;3.70;;
38591;SDS011;24356;48.460;11.450;2023-07-13T05:57:30;8.05;;;3.17;;
38591;SDS011;24356;48.460;11.450;2023-07-13T05:59:56;10.55;;;3.00;;
38591;SDS011;24356;48.460;11.450;2023-07-13T06:02:22;7.53;;;2.83;;
38591;SDS011;24356;48.460;11.450;2023-07-13T06:04:48;5.97;;;2.90;;
38591;SDS011;24356;48.460;11.450;2023-07-13T06:07:14;11.43;;;2.70;;
38591;SDS011;24356;48.460;11.450;2023-07-13T06:09:39;6.13;;;2.75;;
38591;SDS011;24356;48.460;11.450;2023-07-13T06:12:05;5.22;;;2.53;;
38591;SDS011;24356;48.460;11.450;2023-07-13T06:14:31;4.05;;;2.72;;
38591;SDS011;24356;48.460;11.450;2023-07-13T06:16:57;7.97;;;2.92;;
38591;SDS011;24356;48.460;11.450;2023-07-13T06:19:22;7.32;;;2.75;;
38591;SDS011;24356;48.460;11.450;2023-07-13T06:21:48;8.45;;;2.60;;
38591;SDS011;24356;48.460;11.450;2023-07-13T06:24:13;4.50;;;2.70;;
38591;SDS011;24356;48.460;11.450;2023-07-13T06:26:40;13.35;;;2.78;;
38591;SDS011;24356;48.460;11.450;2023-07-13T06:29:06;8.90;;;2.83;;
38591;SDS011;24356;48.460;11.450;2023-07-13T06:31:32;10.18;;;3.08;;
38591;SDS011;24356;48.460;11.450;2023-07-13T06:33:58;4.00;;;2.15;;
38591;SDS011;24356;48.460;11.450;2023-07-13T06:36:23;8.88;;;2.72;;
38591;SDS011;24356;48.460;11.450;2023-07-13T06:38:49;5.93;;;2.30;;
38591;SDS011;24356;48.460;11.450;2023-07-13T06:41:15;6.43;;;2.53;;
38591;SDS011;24356;48.460;11.450;2023-07-13T06:43:41;5.88;;;2.47;;
38591;SDS011;24356;48.460;11.450;2023-07-13T06:46:07;6.32;;;2.42;;
38591;SDS011;24356;48.460;11.450;2023-07-13T06:48:33;7.68;;;2.00;;
38591;SDS011;24356;48.460;11.450;2023-07-13T06:50:59;11.45;;;2.45;;
38591;SDS011;24356;48.460;11.450;2023-07-13T06:53:24;10.10;;;2.40;;
38591;SDS011;24356;48.460;11.450;2023-07-13T06:55:50;7.82;;;2.30;;
38591;SDS011;24356;48.460;11.450;2023-07-13T06:58:17;4.70;;;2.30;;
38591;SDS011;24356;48.460;11.450;2023-07-13T07:00:43;10.90;;;2.25;;
38591;SDS011;24356;48.460;11.450;2023-07-13T07:03:09;4.82;;;2.30;;
38591;SDS011;24356;48.460;11.450;2023-07-13T07:05:34;12.85;;;2.33;;
38591;SDS011;24356;48.460;11.450;2023-07-13T07:08:00;4.50;;;1.95;;
38591;SDS011;24356;48.460;11.450;2023-07-13T07:10:26;8.30;;;2.05;;
38591;SDS011;24356;48.460;11.450;2023-07-13T07:12:54;7.38;;;2.08;;
38591;SDS011;24356;48.460;11.450;2023-07-13T07:15:20;3.88;;;2.15;;
38591;SDS011;24356;48.460;11.450;2023-07-13T07:17:46;4.25;;;1.98;;
38591;SDS011;24356;48.460;11.450;2023-07-13T07:20:11;4.68;;;2.00;;
38591;SDS011;24356;48.460;11.450;2023-07-13T07:22:38;6.93;;;2.15;;
38591;SDS011;24356;48.460;11.450;2023-07-13T07:25:03;7.07;;;2.17;;
38591;SDS011;24356;48.460;11.450;2023-07-13T07:27:30;5.63;;;1.90;;
38591;SDS011;24356;48.460;11.450;2023-07-13T07:29:55;5.13;;;1.92;;
38591;SDS011;24356;48.460;11.450;2023-07-13T07:32:22;8.80;;;2.10;;
38591;SDS011;24356;48.460;11.450;2023-07-13T07:34:48;6.57;;;2.10;;
38591;SDS011;24356;48.460;11.450;2023-07-13T07:37:13;3.33;;;1.90;;
38591;SDS011;24356;48.460;11.450;2023-07-13T07:39:42;8.90;;;2.20;;
38591;SDS011;24356;48.460;11.450;2023-07-13T07:42:09;7.85;;;2.03;;
38591;SDS011;24356;48.460;11.450;2023-07-13T07:44:35;7.57;;;2.20;;
38591;SDS011;24356;48.460;11.450;2023-07-13T07:47:01;8.40;;;1.90;;
38591;SDS011;24356;48.460;11.450;2023-07-13T07:49:27;6.15;;;2.10;;
38591;SDS011;24356;48.460;11.450;2023-07-13T07:51:53;4.72;;;2.00;;
38591;SDS011;24356;48.460;11.450;2023-07-13T07:54:18;3.22;;;1.60;;
38591;SDS011;24356;48.460;11.450;2023-07-13T07:59:28;6.65;;;2.00;;
38591;SDS011;24356;48.460;11.450;2023-07-13T08:01:54;3.85;;;1.88;;
38591;SDS011;24356;48.460;11.450;2023-07-13T08:04:20;7.70;;;1.90;;
38591;SDS011;24356;48.460;11.450;2023-07-13T08:06:46;4.93;;;1.80;;
38591;SDS011;24356;48.460;11.450;2023-07-13T08:09:12;5.97;;;1.73;;
38591;SDS011;24356;48.460;11.450;2023-07-13T08:11:38;4.43;;;1.75;;
38591;SDS011;24356;48.460;11.450;2023-07-13T08:14:03;8.60;;;1.90;;
38591;SDS011;24356;48.460;11.450;2023-07-13T08:16:29;6.93;;;1.90;;
38591;SDS011;24356;48.460;11.450;2023-07-13T08:18:55;5.50;;;1.60;;
38591;SDS011;24356;48.460;11.450;2023-07-13T08:21:20;2.75;;;1.50;;
38591;SDS011;24356;48.460;11.450;2023-07-13T08:23:47;4.75;;;1.92;;
38591;SDS011;24356;48.460;11.450;2023-07-13T08:26:12;9.55;;;1.98;;
38591;SDS011;24356;48.460;11.450;2023-07-13T08:28:38;8.65;;;1.80;;
38591;SDS011;24356;48.460;11.450;2023-07-13T08:31:04;3.75;;;1.92;;
38591;SDS011;24356;48.460;11.450;2023-07-13T08:33:35;9.25;;;1.92;;
38591;SDS011;24356;48.460;11.450;2023-07-13T08:36:03;4.18;;;1.92;;
38591;SDS011;24356;48.460;11.450;2023-07-13T08:38:30;6.38;;;1.98;;
38591;SDS011;24356;48.460;11.450;2023-07-13T08:40:56;5.88;;;1.63;;
38591;SDS011;24356;48.460;11.450;2023-07-13T08:43:27;7.22;;;2.00;;
38591;SDS011;24356;48.460;11.450;2023-07-13T08:46:04;9.20;;;1.70;;
38591;SDS011;24356;48.460;11.450;2023-07-13T08:48:40;6.37;;;1.50;;
38591;SDS011;24356;48.460;11.450;2023-07-13T08:53:46;6.85;;;1.63;;
38591;SDS011;24356;48.460;11.450;2023-07-13T08:56:21;3.15;;;1.67;;
38591;SDS011;24356;48.460;11.450;2023-07-13T08:59:00;6.55;;;1.65;;
38591;SDS011;24356;48.460;11.450;2023-07-13T09:01:33;8.30;;;1.70;;
38591;SDS011;24356;48.460;11.450;2023-07-13T09:04:29;6.13;;;1.90;;
38591;SDS011;24356;48.460;11.450;2023-07-13T09:12:17;6.15;;;1.70;;
38591;SDS011;24356;48.460;11.450;2023-07-13T09:14:52;4.88;;;1.67;;
38591;SDS011;24356;48.460;11.450;2023-07-13T09:17:21;4.22;;;1.70;;
38591;SDS011;24356;48.460;11.450;2023-07-13T09:20:00;5.43;;;1.83;;
38591;SDS011;24356;48.460;11.450;2023-07-13T09:22:30;6.82;;;1.88;;
38591;SDS011;24356;48.460;11.450;2023-07-13T09:27:36;3.50;;;1.65;;
38591;SDS011;24356;48.460;11.450;2023-07-13T09:32:41;6.50;;;1.60;;
38591;SDS011;24356;48.460;11.450;2023-07-13T09:35:12;8.70;;;1.77;;
38591;SDS011;24356;48.460;11.450;2023-07-13T09:37:43;4.30;;;1.63;;
38591;SDS011;24356;48.460;11.450;2023-07-13T09:40:11;3.05;;;1.80;;
38591;SDS011;24356;48.460;11.450;2023-07-13T09:42:45;7.88;;;1.70;;
38591;SDS011;24356;48.460;11.450;2023-07-13T09:45:11;5.95;;;1.60;;
38591;SDS011;24356;48.460;11.450;2023-07-13T09:47:51;6.95;;;1.70;;
38591;SDS011;24356;48.460;11.450;2023-07-13T09:50:28;6.18;;;1.60;;
38591;SDS011;24356;48.460;11.450;2023-07-13T09:52:54;3.45;;;1.80;;
38591;SDS011;24356;48.460;11.450;2023-07-13T09:57:55;3.22;;;1.73;;
38591;SDS011;24356;48.460;11.450;2023-07-13T10:00:22;5.97;;;1.70;;
38591;SDS011;24356;48.460;11.450;2023-07-13T10:03:04;4.15;;;1.80;;
38591;SDS011;24356;48.460;11.450;2023-07-13T10:05:41;5.38;;;1.85;;
38591;SDS011;24356;48.460;11.450;2023-07-13T10:11:02;4.03;;;1.60;;
38591;SDS011;24356;48.460;11.450;2023-07-13T10:13:36;3.35;;;1.50;;
38591;SDS011;24356;48.460;11.450;2023-07-13T10:16:07;2.65;;;1.40;;
38591;SDS011;24356;48.460;11.450;2023-07-13T10:18:50;6.85;;;1.35;;
38591;SDS011;24356;48.460;11.450;2023-07-13T10:21:21;4.43;;;1.50;;
38591;SDS011;24356;48.460;11.450;2023-07-13T10:23:55;2.72;;;1.52;;
38591;SDS011;24356;48.460;11.450;2023-07-13T10:26:32;4.22;;;1.38;;
38591;SDS011;24356;48.460;11.450;2023-07-13T10:29:01;1.52;;;1.10;;
38591;SDS011;24356;48.460;11.450;2023-07-13T10:31:33;4.88;;;1.58;;
38591;SDS011;24356;48.460;11.450;2023-07-13T10:34:02;6.35;;;1.70;;
38591;SDS011;24356;48.460;11.450;2023-07-13T10:36:31;3.83;;;1.30;;
38591;SDS011;24356;48.460;11.450;2023-07-13T10:39:10;4.40;;;1.25;;
38591;SDS011;24356;48.460;11.450;2023-07-13T10:41:42;5.85;;;1.73;;
38591;SDS011;24356;48.460;11.450;2023-07-13T10:44:22;5.10;;;1.40;;
38591;SDS011;24356;48.460;11.450;2023-07-13T10:46:55;7.13;;;1.35;;
38591;SDS011;24356;48.460;11.450;2023-07-13T10:49:23;12.68;;;1.63;;
38591;SDS011;24356;48.460;11.450;2023-07-13T10:51:51;4.70;;;1.17;;
38591;SDS011;24356;48.460;11.450;2023-07-13T10:54:22;4.72;;;1.30;;
38591;SDS011;24356;48.460;11.450;2023-07-13T10:57:07;4.70;;;1.27;;
38591;SDS011;24356;48.460;11.450;2023-07-13T10:59:39;4.05;;;1.40;;
38591;SDS011;24356;48.460;11.450;2023-07-13T11:02:15;2.70;;;1.40;;
38591;SDS011;24356;48.460;11.450;2023-07-13T11:04:51;10.23;;;1.50;;
38591;SDS011;24356;48.460;11.450;2023-07-13T11:09:57;2.35;;;1.17;;
38591;SDS011;24356;48.460;11.450;2023-07-13T11:33:23;2.30;;;1.40;;
38591;SDS011;24356;48.460;11.450;2023-07-13T11:36:19;4.22;;;1.60;;
38591;SDS011;24356;48.460;11.450;2023-07-13T11:38:55;1.83;;;1.17;;
38591;SDS011;24356;48.460;11.450;2023-07-13T11:41:59;3.35;;;1.27;;
38591;SDS011;24356;48.460;11.450;2023-07-13T11:44:22;3.75;;;1.40;;
38591;SDS011;24356;48.460;11.450;2023-07-13T11:46:53;5.95;;;1.45;;
38591;SDS011;24356;48.460;11.450;2023-07-13T11:49:22;4.70;;;1.70;;
38591;SDS011;24356;48.460;11.450;2023-07-13T11:51:49;3.60;;;1.75;;
38591;SDS011;24356;48.460;11.450;2023-07-13T11:56:52;5.90;;;1.30;;
38591;SDS011;24356;48.460;11.450;2023-07-13T11:59:19;4.13;;;1.52;;
38591;SDS011;24356;48.460;11.450;2023-07-13T12:01:47;3.13;;;1.65;;
38591;SDS011;24356;48.460;11.450;2023-07-13T12:06:46;6.90;;;1.33;;
38591;SDS011;24356;48.460;11.450;2023-07-13T12:09:25;2.80;;;1.50;;
38591;SDS011;24356;48.460;11.450;2023-07-13T12:11:52;10.10;;;1.48;;
38591;SDS011;24356;48.460;11.450;2023-07-13T12:14:18;4.00;;;1.45;;
38591;SDS011;24356;48.460;11.450;2023-07-13T12:16:46;2.38;;;1.38;;
38591;SDS011;24356;48.460;11.450;2023-07-13T12:19:22;3.95;;;1.67;;
38591;SDS011;24356;48.460;11.450;2023-07-13T12:21:52;4.10;;;1.58;;
38591;SDS011;24356;48.460;11.450;2023-07-13T12:24:21;2.67;;;1.50;;
38591;SDS011;24356;48.460;11.450;2023-07-13T12:26:58;2.63;;;1.50;;
38591;SDS011;24356;48.460;11.450;2023-07-13T12:29:26;5.65;;;1.48;;
38591;SDS011;24356;48.460;11.450;2023-07-13T12:31:52;2.88;;;1.48;;
38591;SDS011;24356;48.460;11.450;2023-07-13T12:34:18;4.85;;;1.65;;
38591;SDS011;24356;48.460;11.450;2023-07-13T12:36:47;5.32;;;1.63;;
38591;SDS011;24356;48.460;11.450;2023-07-13T12:39:20;4.15;;;1.35;;
38591;SDS011;24356;48.460;11.450;2023-07-13T12:41:49;3.40;;;1.55;;
38591;SDS011;24356;48.460;11.450;2023-07-13T12:44:18;5.20;;;1.73;;
38591;SDS011;24356;48.460;11.450;2023-07-13T12:46:55;2.42;;;1.45;;
38591;SDS011;24356;48.460;11.450;2023-07-13T12:49:28;3.03;;;1.50;;
38591;SDS011;24356;48.460;11.450;2023-07-13T12:51:59;3.70;;;1.35;;
38591;SDS011;24356;48.460;11.450;2023-07-13T12:54:30;4.40;;;1.58;;
38591;SDS011;24356;48.460;11.450;2023-07-13T12:56:56;3.80;;;1.40;;
38591;SDS011;24356;48.460;11.450;2023-07-13T12:59:24;3.88;;;1.70;;
38591;SDS011;24356;48.460;11.450;2023-07-13T13:01:54;7.07;;;1.67;;
38591;SDS011;24356;48.460;11.450;2023-07-13T13:04:19;4.30;;;1.52;;
38591;SDS011;24356;48.460;11.450;2023-07-13T13:06:46;3.35;;;1.55;;
38591;SDS011;24356;48.460;11.450;2023-07-13T13:09:14;4.30;;;1.50;;
38591;SDS011;24356;48.460;11.450;2023-07-13T13:11:41;5.68;;;1.65;;
38591;SDS011;24356;48.460;11.450;2023-07-13T13:14:07;1.92;;;1.40;;
38591;SDS011;24356;48.460;11.450;2023-07-13T13:16:46;7.57;;;1.50;;
38591;SDS011;24356;48.460;11.450;2023-07-13T13:21:43;3.17;;;1.52;;
38591;SDS011;24356;48.460;11.450;2023-07-13T13:24:11;3.80;;;1.60;;
38591;SDS011;24356;48.460;11.450;2023-07-13T13:26:38;2.80;;;1.45;;
38591;SDS011;24356;48.460;11.450;2023-07-13T13:29:12;3.03;;;1.48;;
38591;SDS011;24356;48.460;11.450;2023-07-13T13:31:43;9.88;;;1.40;;
38591;SDS011;24356;48.460;11.450;2023-07-13T13:34:12;3.58;;;1.50;;
38591;SDS011;24356;48.460;11.450;2023-07-13T13:36:41;4.10;;;1.60;;
38591;SDS011;24356;48.460;11.450;2023-07-13T13:39:16;5.07;;;1.60;;
38591;SDS011;24356;48.460;11.450;2023-07-13T13:41:50;6.40;;;1.30;;
38591;SDS011;24356;48.460;11.450;2023-07-13T13:44:18;6.03;;;1.27;;
38591;SDS011;24356;48.460;11.450;2023-07-13T13:46:47;2.90;;;1.40;;
38591;SDS011;24356;48.460;11.450;2023-07-13T13:49:17;3.38;;;1.35;;
38591;SDS011;24356;48.460;11.450;2023-07-13T13:51:48;2.20;;;1.15;;
38591;SDS011;24356;48.460;11.450;2023-07-13T13:54:15;2.85;;;1.30;;
38591;SDS011;24356;48.460;11.450;2023-07-13T13:56:50;2.75;;;1.40;;
38591;SDS011;24356;48.460;11.450;2023-07-13T13:59:16;1.67;;;1.20;;
38591;SDS011;24356;48.460;11.450;2023-07-13T14:01:43;3.17;;;1.50;;
38591;SDS011;24356;48.460;11.450;2023-07-13T14:04:14;4.43;;;1.33;;
38591;SDS011;24356;48.460;11.450;2023-07-13T14:06:43;4.75;;;1.27;;
38591;SDS011;24356;48.460;11.450;2023-07-13T14:09:12;1.70;;;1.13;;
38591;SDS011;24356;48.460;11.450;2023-07-13T14:11:41;2.88;;;1.30;;
38591;SDS011;24356;48.460;11.450;2023-07-13T14:14:08;2.28;;;1.20;;
38591;SDS011;24356;48.460;11.450;2023-07-13T14:16:43;2.35;;;1.45;;
38591;SDS011;24356;48.460;11.450;2023-07-13T14:19:10;2.60;;;1.40;;
38591;SDS011;24356;48.460;11.450;2023-07-13T14:21:37;4.43;;;1.45;;
38591;SDS011;24356;48.460;11.450;2023-07-13T14:24:03;4.95;;;1.38;;
38591;SDS011;24356;48.460;11.450;2023-07-13T14:26:29;2.83;;;1.30;;
38591;SDS011;24356;48.460;11.450;2023-07-13T14:29:00;1.95;;;1.30;;
38591;SDS011;24356;48.460;11.450;2023-07-13T14:31:27;3.65;;;1.52;;
38591;SDS011;24356;48.460;11.450;2023-07-13T14:33:56;6.28;;;1.15;;
38591;SDS011;24356;48.460;11.450;2023-07-13T14:41:57;2.53;;;1.25;;
38591;SDS011;24356;48.460;11.450;2023-07-13T14:44:29;7.57;;;1.20;;
38591;SDS011;24356;48.460;11.450;2023-07-13T14:47:00;2.47;;;1.40;;
38591;SDS011;24356;48.460;11.450;2023-07-13T14:49:32;4.20;;;1.80;;
38591;SDS011;24356;48.460;11.450;2023-07-13T14:52:01;4.85;;;1.30;;
38591;SDS011;24356;48.460;11.450;2023-07-13T14:54:37;2.70;;;1.20;;
38591;SDS011;24356;48.460;11.450;2023-07-13T14:57:13;3.55;;;1.30;;
38591;SDS011;24356;48.460;11.450;2023-07-13T14:59:43;1.88;;;1.10;;
38591;SDS011;24356;48.460;11.450;2023-07-13T15:04:51;3.78;;;1.25;;
38591;SDS011;24356;48.460;11.450;2023-07-13T15:07:17;4.28;;;1.30;;
38591;SDS011;24356;48.460;11.450;2023-07-13T15:09:43;6.13;;;1.50;;
38591;SDS011;24356;48.460;11.450;2023-07-13T15:12:09;5.38;;;1.20;;
38591;SDS011;24356;48.460;11.450;2023-07-13T15:14:35;2.67;;;1.10;;
38591;SDS011;24356;48.460;11.450;2023-07-13T15:17:01;3.70;;;1.30;;
38591;SDS011;24356;48.460;11.450;2023-07-13T15:19:26;2.85;;;1.30;;
38591;SDS011;24356;48.460;11.450;2023-07-13T15:21:54;4.55;;;1.25;;
38591;SDS011;24356;48.460;11.450;2023-07-13T15:24:22;3.92;;;1.40;;
38591;SDS011;24356;48.460;11.450;2023-07-13T15:26:48;4.88;;;1.30;;
38591;SDS011;24356;48.460;11.450;2023-07-13T15:29:15;8.75;;;1.17;;
38591;SDS011;24356;48.460;11.450;2023-07-13T15:31:41;1.75;;;1.08;;
38591;SDS011;24356;48.460;11.450;2023-07-13T15:34:11;4.10;;;1.30;;
38591;SDS011;24356;48.460;11.450;2023-07-13T15:36:39;2.78;;;1.30;;
38591;SDS011;24356;48.460;11.450;2023-07-13T15:39:05;2.63;;;1.40;;